Christiansburg, Ohio
Current Conditions -  °F | °C
As of 6:56 PM on Saturday 20 Dec 2014 (Local Time) from KDAY Reporting Station
Overcast Overcast  
Wind Chill: 31°   Ceiling: 2600
Heat Index: 31°   Visibility: 7mi
Dew Point: 24°   Wind: 0mph
Humidity: 76%   Direction: NA
Pressure: 30.28"   Gusts: NA
Location:  40.06°N, 84.03°W
Report Text: KDAY 202356Z 00000KT 7SM OVC026 M01/M04 A3028 RMK AO2 SLP265 T10061044 10000 21006 51011
Loading
Personal Weather Stations






























Interactive Weather Map New forecast layout! Learn more

10-Day Weather Forecast

Advertisements
Track Severe Weather on mobile